Sedalia, Ohio
Current Conditions -  °F | °C
As of 3:35 AM on Thursday 18 Dec 2014 (Local Time) from KUYF Reporting Station
Overcast Overcast  
Wind Chill: 19°   Ceiling: 1800
Heat Index: 27°   Visibility: 10mi
Dew Point: 21°   Wind: 7mph
Humidity: 80%   Direction: 300°WNW
Pressure: 30.24"   Gusts: NA
Location:  39.73°N, 83.47°W
Report Text: KUYF 180835Z AUTO 30006KT 10SM OVC018 M03/M06 A3024 RMK AO2
Loading
Personal Weather Stations






























Interactive Weather Map New forecast layout! Learn more

10-Day Weather Forecast

Advertisements
Track Severe Weather on mobile